Terminal Aerodrome Forecast
Issued by NWS

Home | Current Version | Previous Version | Text Only | Print | Product List | Glossary On
Versions: 1 2 3 4 5 6 7 8 9 10 11 12 13 14 15 16 17
000
FTAK31 PANC 252338
TAFADL
TAF
PADL 252338Z 2600/2624 10008KT P6SM -SHRA SCT025 BKN040
     FM261000 VRB03KT P6SM SCT025 OVC050
     FM262000 13007KT P6SM SCT050 BKN080=

USA.gov is the U.S. government's official web portal to all federal, state and local government web resources and services.